Peotone Weather
Station Historical Data
Daily Summary for September 12, 2017 Units:  English    Metric   Both
« Previous Day
Next Day »
Daily Weekly Monthly Yearly Custom
  High: Low: Average:
Temperature: 78.5 °F 53.8 °F 63.7 °F
Dew Point: 59.3 °F 52.1 °F 55.6 °F
Humidity: 95% 45% 78%
Wind Speed: 20.7mph 0.0mph 3.2mph
Wind Gust: 20.7mph - -
Wind- - ENE
Pressure: 30.08 in 29.81 in -
Precipitation: 0.00 in    
Historical Graphs
 
 
Tabular Data for September 12, 2017
Time Temperature Dew Point Pressure Wind Wind Speed Wind Gust Humidity Rainfall Rate (Hourly) solar Conditions
00:00 56.1 °F 53.2 °F 30.08 in Calm   2.3 mph 90% 0.00 in 0.00 W/m2
00:05 56.0 °F 53.4 °F 30.08 in NE 1.1 mph 1.1 mph 91% 0.00 in 0.00 W/m2
00:10 56.1 °F 53.5 °F 30.08 in NE 2.3 mph 4.6 mph 91% 0.00 in 0.00 W/m2
00:15 56.2 °F 53.9 °F 30.08 in Calm   5.8 mph 92% 0.00 in 0.00 W/m2
00:20 56.2 °F 53.6 °F 30.08 in NE 4.6 mph 5.8 mph 91% 0.00 in 0.00 W/m2
00:25 56.3 °F 54.0 °F 30.08 in NE 1.1 mph 4.6 mph 92% 0.00 in 0.00 W/m2
00:30 56.6 °F 54.3 °F 30.08 in NE 2.3 mph 5.8 mph 92% 0.00 in 0.00 W/m2
00:35 56.4 °F 53.8 °F 30.08 in NE 2.3 mph 3.4 mph 91% 0.00 in 0.00 W/m2
00:38 56.4 °F 53.8 °F 30.08 in Calm   1.1 mph 91% 0.00 in 0.00 W/m2
00:40 56.1 °F 53.5 °F 30.07 in Calm   4.6 mph 91% 0.00 in 0.00 W/m2
00:43 56.0 °F 53.7 °F 30.07 in NE 1.1 mph 1.1 mph 92% 0.00 in 0.00 W/m2
00:45 55.9 °F 53.6 °F 30.07 in Calm   3.5 mph 92% 0.00 in 0.00 W/m2
00:48 55.9 °F 53.6 °F 30.07 in Calm   2.3 mph 92% 0.00 in 0.00 W/m2
00:50 55.6 °F 53.3 °F 30.07 in NE 3.5 mph 4.6 mph 92% 0.00 in 0.00 W/m2
00:53 55.7 °F 53.4 °F 30.08 in Calm   3.4 mph 92% 0.00 in 0.00 W/m2
00:55 55.9 °F 53.9 °F 30.08 in NE 3.5 mph 8.1 mph 93% 0.00 in 0.00 W/m2
00:58 56.0 °F 53.7 °F 30.07 in Calm   4.6 mph 92% 0.00 in 0.00 W/m2
01:00 56.1 °F 53.8 °F 30.07 in NE 1.1 mph 5.8 mph 92% 0.00 in 0.00 W/m2
01:03 56.2 °F 53.9 °F 30.07 in Calm   8.1 mph 92% 0.00 in 0.00 W/m2
01:05 56.3 °F 54.3 °F 30.07 in Calm   8.1 mph 93% 0.00 in 0.00 W/m2
01:08 56.2 °F 53.9 °F 30.07 in NE 4.6 mph 4.6 mph 92% 0.00 in 0.00 W/m2
01:10 56.2 °F 53.9 °F 30.07 in Calm   4.6 mph 92% 0.00 in 0.00 W/m2
01:13 56.1 °F 53.8 °F 30.07 in Calm   3.4 mph 92% 0.00 in 0.00 W/m2
01:15 56.0 °F 53.7 °F 30.07 in Calm   3.5 mph 92% 0.00 in 0.00 W/m2
01:18 56.0 °F 54.0 °F 30.07 in Calm   2.3 mph 93% 0.00 in 0.00 W/m2
01:20 55.9 °F 53.6 °F 30.07 in Calm   2.3 mph 92% 0.00 in 0.00 W/m2
01:23 55.8 °F 53.8 °F 30.07 in Calm   2.3 mph 93% 0.00 in 0.00 W/m2
01:25 55.6 °F 53.3 °F 30.07 in Calm   4.6 mph 92% 0.00 in 0.00 W/m2
01:28 55.6 °F 53.3 °F 30.06 in Calm   4.6 mph 92% 0.00 in 0.00 W/m2
01:30 55.7 °F 53.7 °F 30.06 in NE 2.3 mph 4.6 mph 93% 0.00 in 0.00 W/m2
01:33 55.7 °F 53.7 °F 30.06 in NE 2.3 mph 3.4 mph 93% 0.00 in 0.00 W/m2
01:35 55.5 °F 53.5 °F 30.06 in Calm   3.5 mph 93% 0.00 in 0.00 W/m2
01:38 55.6 °F 53.6 °F 30.06 in Calm   2.3 mph 93% 0.00 in 0.00 W/m2
01:40 55.5 °F 53.5 °F 30.06 in Calm   3.5 mph 93% 0.00 in 0.00 W/m2
01:43 55.5 °F 53.5 °F 30.07 in NE 1.1 mph 4.6 mph 93% 0.00 in 0.00 W/m2
01:45 55.7 °F 53.7 °F 30.06 in NNE 3.5 mph 4.6 mph 93% 0.00 in 0.00 W/m2
01:48 55.8 °F 53.8 °F 30.06 in NNE 1.1 mph 4.6 mph 93% 0.00 in 0.00 W/m2
01:50 55.9 °F 53.9 °F 30.06 in Calm   4.6 mph 93% 0.00 in 0.00 W/m2
01:53 56.0 °F 54.0 °F 30.06 in Calm   2.3 mph 93% 0.00 in 0.00 W/m2
01:55 56.0 °F 54.0 °F 30.06 in Calm   2.3 mph 93% 0.00 in 0.00 W/m2
01:58 56.0 °F 54.3 °F 30.06 in Calm   2.3 mph 94% 0.00 in 0.00 W/m2
02:00 55.8 °F 53.8 °F 30.06 in NNE 2.3 mph 3.5 mph 93% 0.00 in 0.00 W/m2
02:03 55.7 °F 53.7 °F 30.06 in NNE 3.4 mph 3.4 mph 93% 0.00 in 0.00 W/m2
02:05 55.8 °F 53.8 °F 30.06 in Calm   4.6 mph 93% 0.00 in 0.00 W/m2
02:08 55.9 °F 54.2 °F 30.06 in NNE 1.1 mph 4.6 mph 94% 0.00 in 0.00 W/m2
02:10 55.9 °F 54.2 °F 30.06 in NNE 1.1 mph 4.6 mph 94% 0.00 in 0.00 W/m2
02:15 56.0 °F 54.3 °F 30.06 in Calm   3.4 mph 94% 0.00 in 0.00 W/m2
02:20 55.9 °F 54.2 °F 30.06 in Calm   3.4 mph 94% 0.00 in 0.00 W/m2
02:25 56.0 °F 54.3 °F 30.05 in NE 4.6 mph 5.8 mph 94% 0.00 in 0.00 W/m2
02:30 56.0 °F 54.3 °F 30.05 in NE 3.4 mph 5.8 mph 94% 0.00 in 0.00 W/m2
02:35 55.9 °F 54.2 °F 30.05 in NE 1.1 mph 3.4 mph 94% 0.00 in 0.00 W/m2
02:40 55.8 °F 54.1 °F 30.05 in Calm   2.3 mph 94% 0.00 in 0.00 W/m2
02:45 56.0 °F 54.3 °F 30.05 in NNE 1.1 mph 3.4 mph 94% 0.00 in 0.00 W/m2
02:50 56.0 °F 54.3 °F 30.05 in NE 1.1 mph 6.9 mph 94% 0.00 in 0.00 W/m2
02:55 56.4 °F 54.7 °F 30.05 in NE 2.3 mph 8.1 mph 94% 0.00 in 0.00 W/m2
03:00 56.5 °F 54.8 °F 30.05 in NE 4.6 mph 5.8 mph 94% 0.00 in 0.00 W/m2
03:06 56.5 °F 54.8 °F 30.04 in NNE 2.3 mph 2.3 mph 94% 0.00 in 0.00 W/m2
03:11 56.5 °F 54.8 °F 30.04 in NNE 2.3 mph 2.3 mph 94% 0.00 in 0.00 W/m2
03:16 56.6 °F 54.9 °F 30.04 in NNE 3.4 mph 4.6 mph 94% 0.00 in 0.00 W/m2
03:22 56.5 °F 54.8 °F 30.04 in Calm   2.3 mph 94% 0.00 in 0.00 W/m2
03:27 56.6 °F 54.9 °F 30.03 in NE 2.3 mph 5.8 mph 94% 0.00 in 0.00 W/m2
03:32 56.4 °F 54.4 °F 30.03 in Calm   5.8 mph 93% 0.00 in 0.00 W/m2
03:37 56.2 °F 54.2 °F 30.03 in NE 4.6 mph 5.8 mph 93% 0.00 in 0.00 W/m2
03:42 56.1 °F 54.1 °F 30.03 in NE 4.6 mph 4.6 mph 93% 0.00 in 0.00 W/m2
03:47 56.3 °F 54.3 °F 30.03 in NE 3.4 mph 4.6 mph 93% 0.00 in 0.00 W/m2
03:52 56.3 °F 54.3 °F 30.03 in NE 1.1 mph 2.3 mph 93% 0.00 in 0.00 W/m2
03:57 56.0 °F 54.0 °F 30.02 in NE 1.1 mph 3.4 mph 93% 0.00 in 0.00 W/m2
04:02 55.8 °F 53.8 °F 30.02 in NNE 1.1 mph 3.4 mph 93% 0.00 in 0.00 W/m2
04:07 55.6 °F 53.6 °F 30.02 in NNE 1.1 mph 1.1 mph 93% 0.00 in 0.00 W/m2
04:12 55.5 °F 53.8 °F 30.02 in NNE 1.1 mph 2.3 mph 94% 0.00 in 0.00 W/m2
04:17 55.5 °F 53.8 °F 30.02 in NE 2.3 mph 3.4 mph 94% 0.00 in 0.00 W/m2
04:22 55.5 °F 53.8 °F 30.02 in Calm   1.1 mph 94% 0.00 in 0.00 W/m2
04:27 55.4 °F 53.7 °F 30.02 in NE 4.6 mph 4.6 mph 94% 0.00 in 0.00 W/m2
04:32 55.3 °F 53.6 °F 30.02 in Calm     94% 0.00 in 0.00 W/m2
04:35 55.2 °F 53.5 °F 30.02 in Calm   3.4 mph 94% 0.00 in 0.00 W/m2
04:40 55.1 °F 53.4 °F 30.02 in Calm   3.4 mph 94% 0.00 in 0.00 W/m2
04:45 55.1 °F 53.4 °F 30.02 in Calm   1.1 mph 94% 0.00 in 0.00 W/m2
04:50 54.9 °F 53.2 °F 30.02 in Calm   3.4 mph 94% 0.00 in 0.00 W/m2
04:55 54.9 °F 53.2 °F 30.02 in NE 1.1 mph 4.6 mph 94% 0.00 in 0.00 W/m2
05:00 54.8 °F 53.1 °F 30.03 in NE 1.1 mph 4.6 mph 94% 0.00 in 0.00 W/m2
05:05 54.9 °F 53.5 °F 30.03 in NE 1.1 mph 3.4 mph 95% 0.00 in 0.00 W/m2
05:10 55.1 °F 53.7 °F 30.03 in Calm   8.1 mph 95% 0.00 in 0.00 W/m2
05:15 55.1 °F 53.7 °F 30.03 in NNE 3.4 mph 4.6 mph 95% 0.00 in 0.00 W/m2
05:20 54.9 °F 53.5 °F 30.02 in NNE 1.1 mph 3.4 mph 95% 0.00 in 0.00 W/m2
05:25 54.8 °F 53.1 °F 30.02 in Calm   4.6 mph 94% 0.00 in 0.00 W/m2
05:30 54.7 °F 53.0 °F 30.02 in Calm   3.4 mph 94% 0.00 in 0.00 W/m2
05:35 54.4 °F 52.7 °F 30.02 in NE 2.3 mph 4.6 mph 94% 0.00 in 0.00 W/m2
05:40 54.5 °F 53.1 °F 30.02 in NE 2.3 mph 3.4 mph 95% 0.00 in 0.00 W/m2
05:45 54.4 °F 53.0 °F 30.01 in NE 2.3 mph 4.6 mph 95% 0.00 in 0.00 W/m2
05:50 54.5 °F 53.1 °F 30.01 in Calm   3.4 mph 95% 0.00 in 0.00 W/m2
05:55 54.4 °F 53.0 °F 30.02 in NNE 1.1 mph 5.8 mph 95% 0.00 in 0.00 W/m2
06:00 54.2 °F 52.5 °F 30.02 in NNE 2.3 mph 3.4 mph 94% 0.00 in 0.00 W/m2
06:03 54.1 °F 52.4 °F 30.02 in Calm   3.4 mph 94% 0.00 in 0.00 W/m2
06:08 54.0 °F 52.6 °F 30.02 in NNE 2.3 mph 3.4 mph 95% 0.00 in 0.00 W/m2
06:13 54.0 °F 52.6 °F 30.02 in NNE 2.3 mph 3.4 mph 95% 0.00 in 0.00 W/m2
06:19 54.1 °F 52.7 °F 30.02 in Calm   3.4 mph 95% 0.00 in 0.00 W/m2
06:24 54.2 °F 52.8 °F 30.02 in NNE 1.1 mph 2.3 mph 95% 0.00 in 0.00 W/m2
06:29 54.1 °F 52.4 °F 30.02 in Calm     94% 0.00 in 0.00 W/m2
06:34 54.1 °F 52.7 °F 30.02 in Calm   3.4 mph 95% 0.00 in 0.00 W/m2
06:39 54.1 °F 52.7 °F 30.02 in Calm   3.4 mph 95% 0.00 in 7.00 W/m2
06:44 54.0 °F 52.6 °F 30.02 in Calm   2.3 mph 95% 0.00 in 11.00 W/m2
06:49 53.8 °F 52.1 °F 30.02 in Calm     94% 0.00 in 16.00 W/m2
06:54 53.8 °F 52.4 °F 30.02 in Calm   3.4 mph 95% 0.00 in 21.00 W/m2
06:59 53.8 °F 52.4 °F 30.02 in Calm   2.3 mph 95% 0.00 in 26.00 W/m2
07:04 53.8 °F 52.4 °F 30.02 in NNE 2.3 mph 4.6 mph 95% 0.00 in 33.00 W/m2
07:09 54.0 °F 52.3 °F 30.02 in NNE 1.1 mph 2.3 mph 94% 0.00 in 39.00 W/m2
07:14 54.1 °F 52.4 °F 30.02 in NNE 2.3 mph 3.4 mph 94% 0.00 in 46.00 W/m2
07:19 54.2 °F 52.5 °F 30.02 in Calm   3.4 mph 94% 0.00 in 51.00 W/m2
07:24 54.4 °F 52.7 °F 30.01 in Calm   4.6 mph 94% 0.00 in 56.00 W/m2
07:29 54.8 °F 53.1 °F 30.01 in NNE 2.3 mph 2.3 mph 94% 0.00 in 62.00 W/m2
07:34 55.0 °F 53.0 °F 30.01 in NNE 1.1 mph 4.6 mph 93% 0.00 in 67.00 W/m2
07:39 55.1 °F 53.1 °F 30.01 in Calm   3.4 mph 93% 0.00 in 72.00 W/m2
07:44 55.3 °F 53.3 °F 30.01 in NE 1.1 mph 4.6 mph 93% 0.00 in 76.00 W/m2
07:49 55.7 °F 53.4 °F 30.01 in Calm   5.8 mph 92% 0.00 in 81.00 W/m2
07:54 55.9 °F 53.6 °F 30.01 in NE 1.1 mph 4.6 mph 92% 0.00 in 86.00 W/m2
07:59 56.3 °F 54.0 °F 30.01 in Calm   4.6 mph 92% 0.00 in 90.00 W/m2
08:04 56.7 °F 54.1 °F 30.01 in Calm   3.4 mph 91% 0.00 in 93.00 W/m2
08:09 57.1 °F 54.2 °F 30.02 in Calm   4.6 mph 90% 0.00 in 97.00 W/m2
08:14 57.4 °F 54.2 °F 30.01 in NE 3.4 mph 4.6 mph 89% 0.00 in 100.00 W/m2
08:19 57.7 °F 54.2 °F 30.01 in Calm   4.6 mph 88% 0.00 in 104.00 W/m2
08:24 58.1 °F 54.6 °F 30.01 in ENE 2.3 mph 3.4 mph 88% 0.00 in 109.00 W/m2
08:29 58.3 °F 54.5 °F 30.01 in NE 2.3 mph 5.8 mph 87% 0.00 in 137.00 W/m2
08:34 58.7 °F 54.5 °F 30.01 in NE 2.3 mph 4.6 mph 86% 0.00 in 165.00 W/m2
08:39 59.0 °F 55.1 °F 30.01 in Calm   2.3 mph 87% 0.00 in 193.00 W/m2
08:44 59.3 °F 55.1 °F 30.01 in NE 1.1 mph 5.8 mph 86% 0.00 in 221.00 W/m2
08:55 60.1 °F 55.6 °F 30.01 in NE 3.4 mph 4.6 mph 85% 0.00 in 241.00 W/m2
09:00 60.5 °F 55.3 °F 30.01 in ENE 4.6 mph 8.1 mph 83% 0.00 in 258.00 W/m2
09:05 60.9 °F 56.0 °F 30.01 in Calm   9.2 mph 84% 0.00 in 338.00 W/m2
09:10 61.3 °F 56.1 °F 30.01 in NE 2.3 mph 9.2 mph 83% 0.00 in 362.00 W/m2
09:15 61.9 °F 56.0 °F 30.01 in NE 5.8 mph 8.1 mph 81% 0.00 in 390.00 W/m2
09:20 62.7 °F 57.1 °F 30.00 in ENE 9.2 mph 9.2 mph 82% 0.00 in 408.00 W/m2
09:25 63.1 °F 56.1 °F 30.00 in NE 3.4 mph 10.3 mph 78% 0.00 in 431.00 W/m2
09:30 63.6 °F 56.3 °F 30.01 in NE 11.5 mph 11.5 mph 77% 0.00 in 466.00 W/m2
09:35 64.3 °F 57.3 °F 30.00 in ENE 5.8 mph 11.5 mph 78% 0.00 in 469.00 W/m2
09:40 64.7 °F 57.0 °F 30.00 in NE 4.6 mph 8.1 mph 76% 0.00 in 441.00 W/m2
09:45 65.4 °F 57.3 °F 30.00 in ENE 3.4 mph 9.2 mph 75% 0.00 in 429.00 W/m2
09:50 65.6 °F 57.5 °F 30.00 in NE 3.4 mph 9.2 mph 75% 0.00 in 454.00 W/m2
09:55 66.2 °F 57.7 °F 30.00 in ENE 8.1 mph 11.5 mph 74% 0.00 in 464.00 W/m2
10:00 66.6 °F 57.7 °F 30.00 in NE 9.2 mph 9.2 mph 73% 0.00 in 468.00 W/m2
10:05 67.1 °F 57.4 °F 30.00 in ENE 1.1 mph 12.6 mph 71% 0.00 in 489.00 W/m2
10:10 67.5 °F 57.0 °F 29.99 in NNE 2.3 mph 11.5 mph 69% 0.00 in 466.00 W/m2
10:15 67.8 °F 56.5 °F 29.99 in NNW 9.2 mph 12.6 mph 67% 0.00 in 508.00 W/m2
10:20 68.4 °F 57.0 °F 29.99 in NE 4.6 mph 13.8 mph 67% 0.00 in 496.00 W/m2
10:25 68.8 °F 57.0 °F 29.99 in NNW 5.8 mph 11.5 mph 66% 0.00 in 432.00 W/m2
10:30 68.7 °F 56.5 °F 29.98 in NE 6.9 mph 10.3 mph 65% 0.00 in 457.00 W/m2
10:35 68.8 °F 55.7 °F 29.98 in NE 3.4 mph 11.5 mph 63% 0.00 in 413.00 W/m2
10:36 68.8 °F 55.7 °F 29.98 in NE 3.4 mph 11.5 mph 63% 0.00 in 429.00 W/m2
10:41 69.3 °F 56.2 °F 29.98 in NE 5.8 mph 8.1 mph 63% 0.00 in 445.00 W/m2
10:46 69.6 °F 55.6 °F 29.98 in East 8.1 mph 9.2 mph 61% 0.00 in 497.00 W/m2
10:47 69.7 °F 55.2 °F 29.98 in NNE 1.1 mph 10.3 mph 60% 0.00 in 489.00 W/m2
10:52 69.9 °F 54.9 °F 29.98 in East 11.5 mph 11.5 mph 59% 0.00 in 503.00 W/m2
10:57 70.4 °F 55.9 °F 29.98 in NNE 14.9 mph 14.9 mph 60% 0.00 in 279.00 W/m2
11:02 71.0 °F 55.5 °F 29.98 in NW 8.1 mph 9.2 mph 58% 0.00 in 318.00 W/m2
11:07 71.7 °F 55.2 °F 29.98 in NE 2.3 mph 6.9 mph 56% 0.00 in 682.00 W/m2
11:12 72.0 °F 56.0 °F 29.97 in NNW 10.3 mph 10.3 mph 57% 0.00 in 209.00 W/m2
11:17 72.5 °F 54.9 °F 29.97 in NNE 4.6 mph 17.2 mph 54% 0.00 in 487.00 W/m2
11:22 73.0 °F 55.9 °F 29.97 in NE 9.2 mph 9.2 mph 55% 0.00 in 383.00 W/m2
11:27 73.0 °F 56.4 °F 29.97 in East 6.9 mph 6.9 mph 56% 0.00 in 686.00 W/m2
11:32 73.5 °F 55.3 °F 29.97 in East 3.4 mph 10.3 mph 53% 0.00 in 478.00 W/m2
11:37 73.7 °F 56.0 °F 29.96 in NE 4.6 mph 11.5 mph 54% 0.00 in 752.00 W/m2
11:42 74.1 °F 55.4 °F 29.96 in ENE 9.2 mph 11.5 mph 52% 0.00 in 722.00 W/m2
11:47 74.3 °F 56.6 °F 29.96 in NE 3.4 mph 10.3 mph 54% 0.00 in 747.00 W/m2
11:52 74.2 °F 56.0 °F 29.96 in NE 1.1 mph 10.3 mph 53% 0.00 in 758.00 W/m2
11:57 74.7 °F 54.8 °F 29.96 in NE 20.7 mph 20.7 mph 50% 0.00 in 777.00 W/m2
12:02 75.1 °F 54.7 °F 29.96 in ENE 2.3 mph 9.2 mph 49% 0.00 in 775.00 W/m2
12:07 75.5 °F 56.1 °F 29.96 in NE 9.2 mph 11.5 mph 51% 0.00 in 777.00 W/m2
12:12 75.6 °F 54.0 °F 29.96 in NNE 8.1 mph 16.1 mph 47% 0.00 in 798.00 W/m2
12:17 75.2 °F 53.6 °F 29.95 in East 8.1 mph 14.9 mph 47% 0.00 in 803.00 W/m2
12:22 75.9 °F 54.2 °F 29.95 in NE 6.9 mph 11.5 mph 47% 0.00 in 814.00 W/m2
12:27 75.8 °F 54.7 °F 29.95 in NE 10.3 mph 14.9 mph 48% 0.00 in 817.00 W/m2
12:32 76.8 °F 55.1 °F 29.95 in NNE 5.8 mph 12.6 mph 47% 0.00 in 831.00 W/m2
12:37 76.2 °F 53.3 °F 29.95 in NE 6.9 mph 16.1 mph 45% 0.00 in 844.00 W/m2
12:40 76.0 °F 54.3 °F 29.94 in NNE 4.6 mph 16.1 mph 47% 0.00 in 784.00 W/m2
12:45 76.6 °F 53.7 °F 29.94 in ENE 14.9 mph 18.4 mph 45% 0.00 in 858.00 W/m2
12:50 76.8 °F 53.9 °F 29.94 in NE 3.4 mph 12.6 mph 45% 0.00 in 777.00 W/m2
12:55 77.1 °F 54.2 °F 29.94 in NNE 5.8 mph 16.1 mph 45% 0.00 in 909.00 W/m2
13:00 76.9 °F 55.2 °F 29.93 in North 10.3 mph 11.5 mph 47% 0.00 in 374.00 W/m2
13:06 75.9 °F 53.7 °F 29.93 in East 8.1 mph 11.5 mph 46% 0.00 in 424.00 W/m2
13:08 75.5 °F 53.3 °F 29.93 in East 9.2 mph 14.9 mph 46% 0.00 in 462.00 W/m2
13:13 75.3 °F 52.5 °F 29.93 in ENE 3.4 mph 9.2 mph 45% 0.00 in 353.00 W/m2
13:18 74.8 °F 52.7 °F 29.92 in NE 5.8 mph 10.3 mph 46% 0.00 in 520.00 W/m2
13:23 74.6 °F 54.2 °F 29.92 in NE 3.4 mph 9.2 mph 49% 0.00 in 439.00 W/m2
13:28 76.0 °F 56.6 °F 29.92 in NE 6.9 mph 10.3 mph 51% 0.00 in 687.00 W/m2
13:33 76.1 °F 55.6 °F 29.92 in North 2.3 mph 9.2 mph 49% 0.00 in 638.00 W/m2
13:38 76.1 °F 56.1 °F 29.92 in Calm   10.3 mph 50% 0.00 in 635.00 W/m2
13:43 75.4 °F 54.9 °F 29.92 in Calm   10.3 mph 49% 0.00 in 701.00 W/m2
13:48 76.2 °F 54.5 °F 29.92 in NE 3.4 mph 13.8 mph 47% 0.00 in 668.00 W/m2
13:53 76.5 °F 55.4 °F 29.91 in NE 9.2 mph 12.6 mph 48% 0.00 in 710.00 W/m2
13:58 77.0 °F 55.2 °F 29.91 in ENE 12.6 mph 13.8 mph 47% 0.00 in 788.00 W/m2
14:03 76.6 °F 55.5 °F 29.91 in NE 6.9 mph 14.9 mph 48% 0.00 in 752.00 W/m2
14:08 77.5 °F 56.3 °F 29.91 in NE 4.6 mph 14.9 mph 48% 0.00 in 735.00 W/m2
14:13 77.5 °F 55.1 °F 29.90 in ENE 2.3 mph 14.9 mph 46% 0.00 in 754.00 W/m2
14:18 77.2 °F 54.8 °F 29.90 in NNE 11.5 mph 12.6 mph 46% 0.00 in 735.00 W/m2
14:23 77.9 °F 56.1 °F 29.90 in NE 8.1 mph 11.5 mph 47% 0.00 in 712.00 W/m2
14:28 77.6 °F 55.8 °F 29.90 in NE 4.6 mph 9.2 mph 47% 0.00 in 735.00 W/m2
14:33 77.6 °F 55.8 °F 29.90 in NNE 2.3 mph 13.8 mph 47% 0.00 in 719.00 W/m2
14:38 78.1 °F 56.2 °F 29.89 in East 9.2 mph 12.6 mph 47% 0.00 in 726.00 W/m2
14:44 78.5 °F 58.3 °F 29.89 in NE 1.1 mph 10.3 mph 50% 0.00 in 679.00 W/m2
14:49 77.3 °F 55.5 °F 29.89 in NE 1.1 mph 12.6 mph 47% 0.00 in 682.00 W/m2
14:54 77.9 °F 57.2 °F 29.88 in NE 3.4 mph 9.2 mph 49% 0.00 in 696.00 W/m2
14:59 78.4 °F 55.9 °F 29.88 in ENE 4.6 mph 10.3 mph 46% 0.00 in 524.00 W/m2
15:04 77.7 °F 55.9 °F 29.88 in NE 5.8 mph 8.1 mph 47% 0.00 in 510.00 W/m2
15:09 76.7 °F 55.5 °F 29.88 in NE 2.3 mph 11.5 mph 48% 0.00 in 376.00 W/m2
15:14 75.7 °F 55.8 °F 29.88 in NNE 8.1 mph 12.6 mph 50% 0.00 in 403.00 W/m2
15:19 75.6 °F 55.7 °F 29.88 in NNE 9.2 mph 11.5 mph 50% 0.00 in 436.00 W/m2
15:24 75.1 °F 55.8 °F 29.87 in ENE 8.1 mph 11.5 mph 51% 0.00 in 343.00 W/m2
15:29 75.3 °F 56.5 °F 29.87 in NE 6.9 mph 9.2 mph 52% 0.00 in 376.00 W/m2
15:34 75.8 °F 56.4 °F 29.87 in East 2.3 mph 10.3 mph 51% 0.00 in 285.00 W/m2
15:39 75.8 °F 56.9 °F 29.87 in East 5.8 mph 12.6 mph 52% 0.00 in 204.00 W/m2
15:44 75.8 °F 56.9 °F 29.87 in ENE 2.3 mph 12.6 mph 52% 0.00 in 244.00 W/m2
15:49 76.0 °F 57.1 °F 29.86 in ENE 9.2 mph 12.6 mph 52% 0.00 in 229.00 W/m2
15:54 75.6 °F 56.8 °F 29.86 in ENE 3.4 mph 8.1 mph 52% 0.00 in 176.00 W/m2
15:59 75.9 °F 57.0 °F 29.86 in ENE 5.8 mph 10.3 mph 52% 0.00 in 188.00 W/m2
16:04 75.8 °F 56.9 °F 29.85 in NE 6.9 mph 8.1 mph 52% 0.00 in 158.00 W/m2
16:09 75.7 °F 57.4 °F 29.85 in North 4.6 mph 12.6 mph 53% 0.00 in 135.00 W/m2
16:14 75.5 °F 56.1 °F 29.84 in NE 11.5 mph 11.5 mph 51% 0.00 in 151.00 W/m2
16:19 75.3 °F 56.5 °F 29.84 in NNE 6.9 mph 12.6 mph 52% 0.00 in 127.00 W/m2
16:24 75.7 °F 56.8 °F 29.84 in ENE 4.6 mph 12.6 mph 52% 0.00 in 130.00 W/m2
16:29 75.9 °F 58.1 °F 29.84 in NNE 2.3 mph 10.3 mph 54% 0.00 in 179.00 W/m2
16:34 75.8 °F 56.9 °F 29.84 in North 2.3 mph 9.2 mph 52% 0.00 in 169.00 W/m2
16:39 75.2 °F 57.4 °F 29.84 in NNE 2.3 mph 9.2 mph 54% 0.00 in 311.00 W/m2
16:45 74.8 °F 58.1 °F 29.84 in North 9.2 mph 9.2 mph 56% 0.00 in 135.00 W/m2
16:50 74.4 °F 58.2 °F 29.84 in NE 3.4 mph 9.2 mph 57% 0.00 in 132.00 W/m2
16:55 74.7 °F 58.5 °F 29.84 in NE 5.8 mph 10.3 mph 57% 0.00 in 132.00 W/m2
17:00 74.4 °F 57.2 °F 29.84 in NE 3.4 mph 10.3 mph 55% 0.00 in 139.00 W/m2
17:05 73.8 °F 57.6 °F 29.84 in NE 6.9 mph 12.6 mph 57% 0.00 in 144.00 W/m2
17:10 73.7 °F 58.5 °F 29.84 in NNE 6.9 mph 12.6 mph 59% 0.00 in 165.00 W/m2
17:15 73.7 °F 58.0 °F 29.84 in NNE 2.3 mph 11.5 mph 58% 0.00 in 253.00 W/m2
17:20 73.9 °F 58.2 °F 29.84 in NE 4.6 mph 11.5 mph 58% 0.00 in 309.00 W/m2
17:25 73.9 °F 58.2 °F 29.85 in ENE 8.1 mph 9.2 mph 58% 0.00 in 283.00 W/m2
17:30 73.4 °F 58.2 °F 29.85 in NE 10.3 mph 10.3 mph 59% 0.00 in 241.00 W/m2
17:35 73.2 °F 58.5 °F 29.85 in North 3.4 mph 11.5 mph 60% 0.00 in 214.00 W/m2
17:40 72.9 °F 58.7 °F 29.85 in NE 4.6 mph 11.5 mph 61% 0.00 in 202.00 W/m2
17:45 72.2 °F 58.5 °F 29.85 in NE 4.6 mph 8.1 mph 62% 0.00 in 141.00 W/m2
17:50 71.5 °F 58.3 °F 29.85 in NE 4.6 mph 10.3 mph 63% 0.00 in 134.00 W/m2
17:55 71.2 °F 58.4 °F 29.85 in NE 3.4 mph 9.2 mph 64% 0.00 in 120.00 W/m2
18:00 70.8 °F 58.5 °F 29.85 in NE 8.1 mph 11.5 mph 65% 0.00 in 121.00 W/m2
18:10 70.2 °F 57.9 °F 29.84 in NNE 5.8 mph 11.5 mph 65% 0.00 in 118.00 W/m2
18:15 69.8 °F 57.9 °F 29.84 in NE 9.2 mph 9.2 mph 66% 0.00 in 79.00 W/m2
18:20 69.3 °F 57.9 °F 29.84 in NNE 1.1 mph 9.2 mph 67% 0.00 in 60.00 W/m2
18:25 68.7 °F 57.3 °F 29.84 in NE 2.3 mph 8.1 mph 67% 0.00 in 53.00 W/m2
18:30 68.2 °F 57.7 °F 29.84 in North 3.4 mph 10.3 mph 69% 0.00 in 51.00 W/m2
18:35 67.7 °F 57.6 °F 29.84 in NE 5.8 mph 8.1 mph 70% 0.00 in 47.00 W/m2
18:40 67.4 °F 57.7 °F 29.84 in NE 1.1 mph 9.2 mph 71% 0.00 in 33.00 W/m2
18:45 67.0 °F 57.7 °F 29.84 in North 2.3 mph 8.1 mph 72% 0.00 in 25.00 W/m2
18:50 66.5 °F 57.6 °F 29.83 in NE 3.4 mph 6.9 mph 73% 0.00 in 18.00 W/m2
18:55 66.1 °F 57.6 °F 29.83 in NNE 4.6 mph 8.1 mph 74% 0.00 in 11.00 W/m2
19:00 65.8 °F 57.7 °F 29.83 in NNE 4.6 mph 9.2 mph 75% 0.00 in 5.00 W/m2
19:05 65.6 °F 57.8 °F 29.83 in NE 4.6 mph 8.1 mph 76% 0.00 in 0.00 W/m2
19:10 65.3 °F 57.5 °F 29.83 in NNE 4.6 mph 5.8 mph 76% 0.00 in 0.00 W/m2
19:15 65.1 °F 57.7 °F 29.83 in Calm   6.9 mph 77% 0.00 in 0.00 W/m2
19:21 64.9 °F 57.9 °F 29.83 in NNE 2.3 mph 11.5 mph 78% 0.00 in 0.00 W/m2
19:26 64.7 °F 57.7 °F 29.83 in North 8.1 mph 10.3 mph 78% 0.00 in 0.00 W/m2
19:27 64.7 °F 57.7 °F 29.83 in NNE 3.4 mph 9.2 mph 78% 0.00 in 0.00 W/m2
19:32 64.4 °F 57.8 °F 29.83 in NNE 5.8 mph 6.9 mph 79% 0.00 in 0.00 W/m2
19:38 64.4 °F 57.8 °F 29.83 in NNE 1.1 mph 5.8 mph 79% 0.00 in 0.00 W/m2
19:43 64.3 °F 57.7 °F 29.83 in Calm   6.9 mph 79% 0.00 in 0.00 W/m2
19:48 64.1 °F 57.5 °F 29.83 in NE 2.3 mph 6.9 mph 79% 0.00 in 0.00 W/m2
19:53 64.0 °F 57.7 °F 29.83 in NNE 3.4 mph 8.1 mph 80% 0.00 in 0.00 W/m2
19:58 64.0 °F 57.7 °F 29.83 in NE 4.6 mph 6.9 mph 80% 0.00 in 0.00 W/m2
20:03 63.8 °F 57.5 °F 29.83 in ENE 3.4 mph 8.1 mph 80% 0.00 in 0.00 W/m2
20:08 63.7 °F 57.8 °F 29.83 in NNE 1.1 mph 8.1 mph 81% 0.00 in 0.00 W/m2
20:13 63.5 °F 57.9 °F 29.83 in NE 3.4 mph 8.1 mph 82% 0.00 in 0.00 W/m2
20:18 63.3 °F 57.7 °F 29.83 in NNE 2.3 mph 4.6 mph 82% 0.00 in 0.00 W/m2
20:23 63.1 °F 57.9 °F 29.83 in Calm   5.8 mph 83% 0.00 in 0.00 W/m2
20:28 63.0 °F 57.8 °F 29.83 in NE 4.6 mph 8.1 mph 83% 0.00 in 0.00 W/m2
20:33 63.0 °F 58.1 °F 29.83 in NE 2.3 mph 4.6 mph 84% 0.00 in 0.00 W/m2
20:38 62.7 °F 57.8 °F 29.83 in NE 3.4 mph 5.8 mph 84% 0.00 in 0.00 W/m2
20:43 62.5 °F 57.9 °F 29.83 in Calm   4.6 mph 85% 0.00 in 0.00 W/m2
20:48 62.4 °F 57.8 °F 29.83 in Calm   5.8 mph 85% 0.00 in 0.00 W/m2
20:53 62.1 °F 57.9 °F 29.83 in NNE 4.6 mph 8.1 mph 86% 0.00 in 0.00 W/m2
20:58 62.0 °F 57.8 °F 29.83 in NE 4.6 mph 5.8 mph 86% 0.00 in 0.00 W/m2
21:03 61.9 °F 58.0 °F 29.83 in NE 4.6 mph 5.8 mph 87% 0.00 in 0.00 W/m2
21:09 61.7 °F 57.8 °F 29.83 in NE 3.4 mph 4.6 mph 87% 0.00 in 0.00 W/m2
21:14 61.6 °F 58.0 °F 29.82 in NNE 2.3 mph 5.8 mph 88% 0.00 in 0.00 W/m2
21:19 61.4 °F 57.8 °F 29.82 in NNE 1.1 mph 5.8 mph 88% 0.00 in 0.00 W/m2
21:24 61.3 °F 57.7 °F 29.82 in NE 1.1 mph 3.4 mph 88% 0.00 in 0.00 W/m2
21:29 61.1 °F 57.8 °F 29.82 in NE 3.4 mph 3.4 mph 89% 0.00 in 0.00 W/m2
21:34 61.0 °F 57.7 °F 29.82 in NE 2.3 mph 3.4 mph 89% 0.00 in 0.00 W/m2
21:39 60.9 °F 58.0 °F 29.82 in Calm   4.6 mph 90% 0.00 in 0.00 W/m2
21:44 60.9 °F 58.0 °F 29.82 in NNE 2.3 mph 2.3 mph 90% 0.00 in 0.00 W/m2
21:49 60.9 °F 58.0 °F 29.82 in North 2.3 mph 6.9 mph 90% 0.00 in 0.00 W/m2
21:54 60.8 °F 57.8 °F 29.82 in North 1.1 mph 4.6 mph 90% 0.00 in 0.00 W/m2
21:59 60.9 °F 58.3 °F 29.82 in North 1.1 mph 3.4 mph 91% 0.00 in 0.00 W/m2
22:04 60.9 °F 58.3 °F 29.82 in Calm   5.8 mph 91% 0.00 in 0.00 W/m2
22:09 60.8 °F 58.2 °F 29.82 in Calm   3.4 mph 91% 0.00 in 0.00 W/m2
22:20 60.7 °F 58.1 °F 29.82 in North 2.3 mph 4.6 mph 91% 0.00 in 0.00 W/m2
22:25 60.8 °F 58.2 °F 29.81 in Calm   3.4 mph 91% 0.00 in 0.00 W/m2
22:30 60.8 °F 58.2 °F 29.82 in Calm   5.8 mph 91% 0.00 in 0.00 W/m2
22:35 60.8 °F 58.2 °F 29.82 in Calm   6.9 mph 91% 0.00 in 0.00 W/m2
22:40 60.7 °F 58.1 °F 29.82 in North 2.3 mph 3.4 mph 91% 0.00 in 0.00 W/m2
22:45 60.7 °F 58.1 °F 29.82 in NNE 4.6 mph 4.6 mph 91% 0.00 in 0.00 W/m2
22:50 60.8 °F 58.5 °F 29.82 in NE 2.3 mph 5.8 mph 92% 0.00 in 0.00 W/m2
22:55 60.9 °F 58.6 °F 29.82 in NE 1.1 mph 6.9 mph 92% 0.00 in 0.00 W/m2
23:00 61.1 °F 58.5 °F 29.82 in NE 3.4 mph 6.9 mph 91% 0.00 in 0.00 W/m2
23:05 61.2 °F 58.6 °F 29.82 in NE 4.6 mph 5.8 mph 91% 0.00 in 0.00 W/m2
23:10 61.4 °F 59.1 °F 29.82 in Calm   8.1 mph 92% 0.00 in 0.00 W/m2
23:15 61.6 °F 59.0 °F 29.82 in NNE 2.3 mph 10.3 mph 91% 0.00 in 0.00 W/m2
23:20 61.7 °F 59.0 °F 29.82 in NNE 4.6 mph 8.1 mph 91% 0.00 in 0.00 W/m2
23:25 61.7 °F 59.0 °F 29.82 in NNE 4.6 mph 5.8 mph 91% 0.00 in 0.00 W/m2
23:30 61.7 °F 59.0 °F 29.81 in Calm   4.6 mph 91% 0.00 in 0.00 W/m2
23:35 61.5 °F 58.8 °F 29.81 in Calm   6.9 mph 91% 0.00 in 0.00 W/m2
23:41 61.4 °F 59.1 °F 29.81 in NE 2.3 mph 6.9 mph 92% 0.00 in 0.00 W/m2
23:46 61.3 °F 59.0 °F 29.81 in NNE 1.1 mph 5.8 mph 92% 0.00 in 0.00 W/m2
23:51 61.2 °F 59.2 °F 29.81 in NE 3.4 mph 6.9 mph 93% 0.00 in 0.00 W/m2
23:56 61.3 °F 59.3 °F 29.81 in NNE 3.4 mph 4.6 mph 93% 0.00 in 0.00 W/m2
peotoneweather.com
Compliments of Weather Underground - 1.75 mb